createdAt,value
2023-02-19T00:02:35.683Z,100511.72
2023-02-19T00:05:38.361Z,100513.81
2023-02-19T00:08:40.721Z,100522.78
2023-02-19T00:11:44.053Z,100507.47
2023-02-19T00:14:46.415Z,100508.94
2023-02-19T00:17:49.065Z,100509.62
2023-02-19T00:20:51.396Z,100505.31
2023-02-19T00:23:57.628Z,100485.56
2023-02-19T00:26:59.945Z,100492.78
2023-02-19T00:30:02.688Z,100502.09
2023-02-19T00:33:05.127Z,100507.06
2023-02-19T00:36:08.073Z,100483.94
2023-02-19T00:39:15.690Z,100474.53
2023-02-19T00:42:19.801Z,100480.59
2023-02-19T00:45:22.207Z,100490.94
2023-02-19T00:48:24.925Z,100480.00
2023-02-19T00:51:32.845Z,100488.88
2023-02-19T00:54:35.509Z,100482.88
2023-02-19T00:57:38.924Z,100469.75
2023-02-19T01:00:41.590Z,100497.63
2023-02-19T01:03:43.929Z,100481.84
2023-02-19T01:06:48.685Z,100503.94
2023-02-19T01:09:51.163Z,100506.13
2023-02-19T01:12:53.885Z,100495.91
2023-02-19T01:16:17.045Z,100497.53
2023-02-19T01:19:19.684Z,100491.97
2023-02-19T01:22:22.112Z,100490.00
2023-02-19T01:25:24.738Z,100486.62
2023-02-19T01:28:27.215Z,100477.13
2023-02-19T01:31:31.068Z,100458.91
2023-02-19T01:34:34.202Z,100475.97
2023-02-19T01:37:37.432Z,100485.16
2023-02-19T01:40:39.749Z,100486.31
2023-02-19T01:44:01.346Z,100477.22
2023-02-19T01:47:03.712Z,100480.59
2023-02-19T01:50:06.729Z,100481.03
2023-02-19T01:53:12.105Z,100482.34
2023-02-19T01:56:18.603Z,100482.44
2023-02-19T01:59:21.702Z,100469.31
2023-02-19T02:02:28.519Z,100489.75
2023-02-19T02:05:45.614Z,100483.69
2023-02-19T02:09:10.492Z,100469.53
2023-02-19T02:12:13.369Z,100466.88
2023-02-19T02:15:16.924Z,100463.66
2023-02-19T02:18:47.397Z,100474.56
2023-02-19T02:22:16.641Z,100476.84
2023-02-19T02:25:21.873Z,100449.22
2023-02-19T02:28:52.693Z,100444.78
2023-02-19T02:32:17.375Z,100459.53
2023-02-19T02:35:27.343Z,100452.28
2023-02-19T02:38:32.922Z,100445.88
2023-02-19T02:41:35.429Z,100453.41
2023-02-19T02:44:39.809Z,100450.84
2023-02-19T02:47:55.257Z,100453.72
2023-02-19T02:51:10.274Z,100442.75
2023-02-19T02:54:44.621Z,100464.69
2023-02-19T02:57:47.701Z,100461.16
2023-02-19T03:01:15.240Z,100473.12
2023-02-19T03:04:36.138Z,100469.31
2023-02-19T03:07:47.011Z,100462.84
2023-02-19T03:11:22.402Z,100474.22
2023-02-19T03:14:54.666Z,100470.53
2023-02-19T03:18:22.696Z,100478.47
2023-02-19T03:21:28.447Z,100461.69
2023-02-19T03:24:54.016Z,100473.00
2023-02-19T03:28:01.548Z,100455.09
2023-02-19T03:31:04.478Z,100487.31
2023-02-19T03:34:12.305Z,100491.00
2023-02-19T03:37:38.796Z,100489.03
2023-02-19T03:41:14.398Z,100481.50
2023-02-19T03:44:25.495Z,100457.22
2023-02-19T03:47:33.993Z,100489.72
2023-02-19T03:50:50.228Z,100488.09
2023-02-19T03:54:22.704Z,100473.78
2023-02-19T03:57:52.131Z,100488.91
2023-02-19T04:01:05.717Z,100484.25
2023-02-19T04:04:13.252Z,100477.84
2023-02-19T04:07:15.762Z,100484.06
2023-02-19T04:10:20.705Z,100475.13
2023-02-19T04:13:38.809Z,100456.69
2023-02-19T04:16:47.531Z,100479.41
2023-02-19T04:19:51.923Z,100469.88
2023-02-19T04:22:55.522Z,100490.31
2023-02-19T04:26:00.260Z,100470.78
2023-02-19T04:29:03.112Z,100486.56
2023-02-19T04:32:05.654Z,100490.50
2023-02-19T04:35:08.831Z,100467.78
2023-02-19T04:38:12.273Z,100475.91
2023-02-19T04:41:14.872Z,100478.53
2023-02-19T04:44:17.231Z,100464.66
2023-02-19T04:47:19.862Z,100492.22
2023-02-19T04:50:23.217Z,100478.38
2023-02-19T04:53:25.855Z,100483.41
2023-02-19T04:56:28.236Z,100492.53
2023-02-19T04:59:30.950Z,100487.19
2023-02-19T05:02:33.272Z,100477.16
2023-02-19T05:05:35.957Z,100462.00
2023-02-19T05:08:38.926Z,100459.50
2023-02-19T05:11:41.628Z,100452.88
2023-02-19T05:14:43.971Z,100475.00
2023-02-19T05:17:46.575Z,100479.53
2023-02-19T05:20:50.492Z,100474.56
2023-02-19T05:23:53.149Z,100476.81
2023-02-19T05:26:55.609Z,100473.28
2023-02-19T05:29:58.218Z,100488.88
2023-02-19T05:33:00.536Z,100470.66
2023-02-19T05:36:07.187Z,100486.91
2023-02-19T05:39:11.511Z,100465.41
2023-02-19T05:42:15.498Z,100465.91
2023-02-19T05:45:17.817Z,100478.00
2023-02-19T05:48:20.469Z,100470.28
2023-02-19T05:51:24.885Z,100474.19
2023-02-19T05:54:31.489Z,100474.78
2023-02-19T05:57:33.802Z,100469.09
2023-02-19T06:00:36.481Z,100479.38
2023-02-19T06:03:39.112Z,100490.94
2023-02-19T06:06:42.413Z,100476.12
2023-02-19T06:09:45.154Z,100475.62
2023-02-19T06:12:47.461Z,100482.91
2023-02-19T06:15:50.075Z,100502.22
2023-02-19T06:18:52.639Z,100499.44
2023-02-19T06:21:55.330Z,100466.28
2023-02-19T06:24:58.204Z,100476.22
2023-02-19T06:28:00.945Z,100470.19
2023-02-19T06:31:04.363Z,100461.75
2023-02-19T06:34:07.025Z,100477.94
2023-02-19T06:37:09.402Z,100458.63
2023-02-19T06:40:12.049Z,100466.28
2023-02-19T06:43:14.399Z,100443.56
2023-02-19T06:46:17.242Z,100456.59
2023-02-19T06:49:19.617Z,100461.31
2023-02-19T06:52:22.259Z,100457.47
2023-02-19T06:55:24.662Z,100467.72
2023-02-19T06:58:27.928Z,100462.81
2023-02-19T07:01:32.167Z,100444.16
2023-02-19T07:04:34.973Z,100456.81
2023-02-19T07:07:37.350Z,100466.22
2023-02-19T07:10:40.019Z,100469.19
2023-02-19T07:13:42.448Z,100451.25
2023-02-19T07:16:47.378Z,100478.84
2023-02-19T07:19:49.859Z,100468.78
2023-02-19T07:22:52.566Z,100465.47
2023-02-19T07:25:54.912Z,100471.88
2023-02-19T07:28:57.572Z,100442.25
2023-02-19T07:32:00.053Z,100439.50
2023-02-19T07:35:02.702Z,100459.12
2023-02-19T07:38:05.059Z,100450.34
2023-02-19T07:41:08.038Z,100437.72
2023-02-19T07:44:13.527Z,100442.59
2023-02-19T07:47:16.123Z,100428.75
2023-02-19T07:50:18.587Z,100453.50
2023-02-19T07:53:22.427Z,100452.75
2023-02-19T07:56:24.893Z,100451.34
2023-02-19T07:59:27.588Z,100475.13
2023-02-19T08:02:48.790Z,100472.72
2023-02-19T08:05:53.817Z,100465.53
2023-02-19T08:08:57.537Z,100467.34
2023-02-19T08:12:18.899Z,100468.75
2023-02-19T08:15:22.500Z,100486.50
2023-02-19T08:18:27.331Z,100493.34
2023-02-19T08:21:29.655Z,100505.59
2023-02-19T08:24:33.941Z,100489.50
2023-02-19T08:27:36.423Z,100485.72
2023-02-19T08:30:41.107Z,100504.41
2023-02-19T08:33:43.557Z,100510.56
2023-02-19T08:36:46.191Z,100515.28
2023-02-19T08:39:48.561Z,100507.78
2023-02-19T08:42:51.925Z,100497.06
2023-02-19T08:45:55.312Z,100484.69
2023-02-19T08:48:58.312Z,100465.22
2023-02-19T08:52:00.764Z,100462.38
2023-02-19T08:55:05.335Z,100497.91
2023-02-19T08:58:07.892Z,100485.75
2023-02-19T09:01:13.415Z,100488.53
2023-02-19T09:04:16.052Z,100462.72
2023-02-19T09:07:20.357Z,100470.47
2023-02-19T09:10:22.772Z,100483.50
2023-02-19T09:13:25.421Z,100490.34
2023-02-19T09:16:27.864Z,100487.34
2023-02-19T09:19:31.089Z,100478.28
2023-02-19T09:22:33.518Z,100481.69
2023-02-19T09:25:36.193Z,100447.56
2023-02-19T09:28:41.734Z,100479.66
2023-02-19T09:31:45.913Z,100475.00
2023-02-19T09:34:50.000Z,100461.63
2023-02-19T09:37:52.726Z,100458.78
2023-02-19T09:40:57.625Z,100463.03
2023-02-19T09:44:02.789Z,100465.75
2023-02-19T09:47:15.458Z,100456.88
2023-02-19T09:50:22.950Z,100454.59
2023-02-19T09:53:40.280Z,100432.22
2023-02-19T09:56:43.200Z,100451.81
2023-02-19T09:59:50.289Z,100439.75
2023-02-19T10:02:57.285Z,100430.25
2023-02-19T10:06:04.849Z,100435.19
2023-02-19T10:09:20.224Z,100432.53
2023-02-19T10:12:31.346Z,100417.75
2023-02-19T10:15:47.989Z,100415.34
2023-02-19T10:18:50.932Z,100404.62
2023-02-19T10:21:53.351Z,100406.22
2023-02-19T10:24:56.608Z,100407.94
2023-02-19T10:28:00.314Z,100397.72
2023-02-19T10:31:07.551Z,100390.78
2023-02-19T10:34:19.569Z,100382.72
2023-02-19T10:37:22.411Z,100367.56
2023-02-19T10:40:27.780Z,100352.59
2023-02-19T10:43:34.006Z,100342.94
2023-02-19T10:46:43.588Z,100348.31
2023-02-19T10:49:48.889Z,100333.62
2023-02-19T10:52:55.741Z,100344.09
2023-02-19T10:56:22.457Z,100315.81
2023-02-19T10:59:27.289Z,100327.06
2023-02-19T11:02:31.942Z,100311.19
2023-02-19T11:05:36.652Z,100306.19
2023-02-19T11:08:46.852Z,100302.44
2023-02-19T11:11:53.710Z,100301.66
2023-02-19T11:14:56.782Z,100295.94
2023-02-19T11:18:10.686Z,100280.44
2023-02-19T11:21:33.594Z,100281.91
2023-02-19T11:24:40.494Z,100305.00
2023-02-19T11:28:07.275Z,100290.78
2023-02-19T11:31:16.113Z,100281.63
2023-02-19T11:34:21.364Z,100270.63
2023-02-19T11:37:23.722Z,100268.13
2023-02-19T11:40:53.364Z,100249.72
2023-02-19T11:44:25.823Z,100240.50
2023-02-19T11:47:49.612Z,100246.75
2023-02-19T11:51:23.635Z,100210.72
2023-02-19T11:54:42.669Z,100208.09
2023-02-19T11:58:12.073Z,100231.09
2023-02-19T12:01:42.391Z,100230.28
2023-02-19T12:05:13.164Z,100234.88
2023-02-19T12:08:38.415Z,100223.34
2023-02-19T12:11:55.778Z,100202.09
2023-02-19T12:15:35.581Z,100205.38
2023-02-19T12:18:38.169Z,100203.91
2023-02-19T12:21:56.046Z,100211.28
2023-02-19T12:25:15.299Z,100214.22
2023-02-19T12:28:23.729Z,100202.91
2023-02-19T12:31:33.026Z,100184.34
2023-02-19T12:34:49.421Z,100203.91
2023-02-19T12:38:03.774Z,100213.97
2023-02-19T12:41:41.670Z,100196.81
2023-02-19T12:44:51.648Z,100222.47
2023-02-19T12:48:28.125Z,100216.16
2023-02-19T12:52:02.065Z,100237.37
2023-02-19T12:55:40.553Z,100257.94
2023-02-19T12:58:48.900Z,100269.38
2023-02-19T13:02:00.170Z,100258.13
2023-02-19T13:05:11.060Z,100258.34
2023-02-19T13:08:16.095Z,100259.78
2023-02-19T13:11:57.401Z,100234.84
2023-02-19T13:15:21.082Z,100243.38
2023-02-19T13:18:30.220Z,100233.66
2023-02-19T13:21:54.808Z,100226.19
2023-02-19T13:24:58.665Z,100251.91
2023-02-19T13:28:34.401Z,100253.78
2023-02-19T13:31:51.518Z,100230.78
2023-02-19T13:35:38.017Z,100232.84
2023-02-19T13:38:46.984Z,100238.47
2023-02-19T13:41:50.738Z,100234.16
2023-02-19T13:44:57.888Z,100241.72
2023-02-19T13:48:14.554Z,100276.56
2023-02-19T13:51:21.709Z,100247.19
2023-02-19T13:54:29.634Z,100275.00
2023-02-19T13:57:32.547Z,100263.84
2023-02-19T14:00:52.200Z,100279.19
2023-02-19T14:04:08.868Z,100293.97
2023-02-19T14:07:11.238Z,100298.66
2023-02-19T14:10:35.032Z,100311.44
2023-02-19T14:13:52.360Z,100320.00
2023-02-19T14:16:58.703Z,100332.78
2023-02-19T14:20:35.935Z,100312.59
2023-02-19T14:23:38.653Z,100351.28
2023-02-19T14:26:41.797Z,100351.19
2023-02-19T14:29:44.998Z,100349.53
2023-02-19T14:32:54.562Z,100359.56
2023-02-19T14:36:28.903Z,100367.72
2023-02-19T14:39:35.200Z,100377.03
2023-02-19T14:42:37.911Z,100387.22
2023-02-19T14:45:44.938Z,100396.41
2023-02-19T14:48:49.822Z,100370.59
2023-02-19T14:52:01.231Z,100396.50
2023-02-19T14:55:09.867Z,100403.59
2023-02-19T14:58:17.536Z,100396.16
2023-02-19T15:01:27.671Z,100385.47
2023-02-19T15:04:36.543Z,100389.87
2023-02-19T15:07:42.034Z,100375.41
2023-02-19T15:10:44.956Z,100391.72
2023-02-19T15:13:52.444Z,100392.50
2023-02-19T15:17:00.678Z,100411.81
2023-02-19T15:20:09.429Z,100407.09
2023-02-19T15:23:21.034Z,100412.03
2023-02-19T15:26:35.649Z,100432.94
2023-02-19T15:29:46.008Z,100416.37
2023-02-19T15:32:59.946Z,100393.25
2023-02-19T15:36:06.646Z,100401.88
2023-02-19T15:39:19.482Z,100408.91
2023-02-19T15:42:28.470Z,100379.37
2023-02-19T15:45:46.313Z,100394.03
2023-02-19T15:48:54.497Z,100392.97
2023-02-19T15:52:05.807Z,100388.75
2023-02-19T15:55:36.610Z,100404.69
2023-02-19T15:58:45.620Z,100394.72
2023-02-19T16:01:48.391Z,100414.50
2023-02-19T16:04:51.134Z,100403.97
2023-02-19T16:08:08.631Z,100411.03
2023-02-19T16:11:23.528Z,100422.38
2023-02-19T16:14:34.918Z,100433.81
2023-02-19T16:17:37.725Z,100427.13
2023-02-19T16:20:40.430Z,100427.44
2023-02-19T16:23:45.448Z,100423.28
2023-02-19T16:26:47.932Z,100439.38
2023-02-19T16:29:51.805Z,100449.38
2023-02-19T16:33:39.414Z,100440.66
2023-02-19T16:36:43.531Z,100463.28
2023-02-19T16:39:45.947Z,100477.53
2023-02-19T16:42:48.536Z,100472.03
2023-02-19T16:45:51.008Z,100497.72
2023-02-19T16:48:54.556Z,100489.16
2023-02-19T16:51:59.833Z,100468.28
2023-02-19T16:55:03.784Z,100469.72
2023-02-19T16:58:06.251Z,100463.22
2023-02-19T17:01:09.392Z,100468.72
2023-02-19T17:04:15.291Z,100486.72
2023-02-19T17:07:18.819Z,100476.84
2023-02-19T17:10:26.417Z,100501.47
2023-02-19T17:13:29.913Z,100511.28
2023-02-19T17:16:40.286Z,100484.78
2023-02-19T17:19:43.172Z,100509.62
2023-02-19T17:22:45.546Z,100500.75
2023-02-19T17:25:48.145Z,100501.28
2023-02-19T17:28:51.080Z,100484.94
2023-02-19T17:31:53.912Z,100480.78
2023-02-19T17:34:56.375Z,100528.97
2023-02-19T17:37:59.074Z,100506.22
2023-02-19T17:41:01.398Z,100523.38
2023-02-19T17:44:04.161Z,100530.62
2023-02-19T17:47:07.678Z,100526.88
2023-02-19T17:50:15.256Z,100544.06
2023-02-19T17:53:18.371Z,100540.28
2023-02-19T17:56:25.685Z,100546.88
2023-02-19T17:59:28.089Z,100538.91
2023-02-19T18:02:30.923Z,100536.47
2023-02-19T18:05:33.627Z,100535.91
2023-02-19T18:08:36.052Z,100565.75
2023-02-19T18:11:38.662Z,100566.31
2023-02-19T18:14:41.103Z,100578.81
2023-02-19T18:17:44.153Z,100576.59
2023-02-19T18:20:46.511Z,100586.25
2023-02-19T18:23:49.163Z,100567.47
2023-02-19T18:26:51.434Z,100607.09
2023-02-19T18:29:56.189Z,100621.28
2023-02-19T18:32:58.549Z,100604.44
2023-02-19T18:36:01.415Z,100617.97
2023-02-19T18:39:03.813Z,100637.41
2023-02-19T18:42:06.545Z,100632.50
2023-02-19T18:45:09.438Z,100645.25
2023-02-19T18:48:12.671Z,100663.53
2023-02-19T18:51:15.016Z,100663.00
2023-02-19T18:54:17.696Z,100661.97
2023-02-19T18:57:22.018Z,100692.44
2023-02-19T19:00:26.583Z,100706.31
2023-02-19T19:03:30.174Z,100696.06
2023-02-19T19:06:33.348Z,100701.34
2023-02-19T19:09:36.031Z,100716.88
2023-02-19T19:12:38.701Z,100718.25
2023-02-19T19:15:41.514Z,100717.41
2023-02-19T19:18:44.385Z,100712.44
2023-02-19T19:21:54.549Z,100713.84
2023-02-19T19:24:57.173Z,100708.63
2023-02-19T19:27:59.652Z,100715.00
2023-02-19T19:31:02.869Z,100697.59
2023-02-19T19:34:05.474Z,100717.56
2023-02-19T19:37:08.234Z,100692.09
2023-02-19T19:40:11.202Z,100708.75
2023-02-19T19:43:13.856Z,100709.31
2023-02-19T19:46:19.903Z,100712.34
2023-02-19T19:49:23.391Z,100734.84
2023-02-19T19:52:25.721Z,100719.31
2023-02-19T19:55:28.376Z,100712.69
2023-02-19T19:58:30.757Z,100726.53
2023-02-19T20:01:33.405Z,100739.03
2023-02-19T20:04:36.046Z,100734.03
2023-02-19T20:07:41.602Z,100737.94
2023-02-19T20:10:45.517Z,100753.72
2023-02-19T20:13:47.861Z,100735.44
2023-02-19T20:16:50.695Z,100774.50
2023-02-19T20:19:53.569Z,100780.31
2023-02-19T20:22:56.233Z,100791.94
2023-02-19T20:25:58.641Z,100793.63
2023-02-19T20:29:01.339Z,100803.03
2023-02-19T20:32:04.100Z,100804.44
2023-02-19T20:35:07.255Z,100811.62
2023-02-19T20:38:09.581Z,100815.75
2023-02-19T20:41:12.668Z,100852.38
2023-02-19T20:44:15.889Z,100839.06
2023-02-19T20:47:18.657Z,100871.22
2023-02-19T20:50:21.713Z,100869.00
2023-02-19T20:53:24.662Z,100881.19
2023-02-19T20:56:26.993Z,100872.81
2023-02-19T20:59:35.093Z,100893.59
2023-02-19T21:02:37.623Z,100897.19
2023-02-19T21:05:40.761Z,100899.38
2023-02-19T21:08:43.132Z,100882.41
2023-02-19T21:11:46.047Z,100886.78
2023-02-19T21:14:49.338Z,100902.59
2023-02-19T21:17:52.095Z,100915.84
2023-02-19T21:20:54.535Z,100907.19
2023-02-19T21:23:59.232Z,100890.28
2023-02-19T21:27:01.673Z,100907.66
2023-02-19T21:30:07.922Z,100920.31
2023-02-19T21:33:10.329Z,100924.34
2023-02-19T21:36:13.294Z,100936.19
2023-02-19T21:39:18.676Z,100933.25
2023-02-19T21:42:21.374Z,100937.38
2023-02-19T21:45:23.995Z,100932.34
2023-02-19T21:48:26.794Z,100927.56
2023-02-19T21:51:35.237Z,100915.28
2023-02-19T21:54:38.000Z,100941.34
2023-02-19T21:57:40.468Z,100940.97
2023-02-19T22:00:43.070Z,100918.13
2023-02-19T22:03:45.686Z,100919.75
2023-02-19T22:06:48.008Z,100912.78
2023-02-19T22:09:51.816Z,100939.63
2023-02-19T22:12:54.219Z,100942.34
2023-02-19T22:15:56.902Z,100924.81
2023-02-19T22:19:00.242Z,100937.78
2023-02-19T22:22:03.202Z,100939.91
2023-02-19T22:25:05.785Z,100936.31
2023-02-19T22:28:08.460Z,100949.28
2023-02-19T22:31:10.833Z,100920.91
2023-02-19T22:34:15.548Z,100947.22
2023-02-19T22:37:18.010Z,100957.44
2023-02-19T22:40:20.761Z,100958.78
2023-02-19T22:43:23.066Z,100952.94
2023-02-19T22:46:28.640Z,100962.78
2023-02-19T22:49:30.977Z,100954.66
2023-02-19T22:52:33.566Z,100973.22
2023-02-19T22:55:35.926Z,100972.13
2023-02-19T22:58:38.577Z,100983.16
2023-02-19T23:01:41.703Z,100989.84
2023-02-19T23:04:44.450Z,100973.25
2023-02-19T23:07:46.797Z,100995.72
2023-02-19T23:10:50.199Z,100985.44
2023-02-19T23:13:52.528Z,101012.28
2023-02-19T23:16:55.207Z,101034.28
2023-02-19T23:19:57.543Z,101029.28
2023-02-19T23:23:00.260Z,100997.03
2023-02-19T23:26:03.840Z,101029.72
2023-02-19T23:29:06.441Z,101044.34
2023-02-19T23:32:08.908Z,101052.84
2023-02-19T23:35:11.612Z,101038.88
2023-02-19T23:38:13.947Z,101033.28
2023-02-19T23:41:17.753Z,101066.91
2023-02-19T23:44:21.844Z,101040.28
2023-02-19T23:47:26.561Z,101064.28
2023-02-19T23:50:28.960Z,101076.09
2023-02-19T23:53:31.549Z,101087.34
2023-02-19T23:56:34.432Z,101063.19
2023-02-19T23:59:37.126Z,101094.56
